sensor_id;sensor_type;location;lat;lon;timestamp;temperature;humidity
13344;DHT22;6741;48.964;9.406;2023-03-01T00:01:11;-1.20;99.90
13344;DHT22;6741;48.964;9.406;2023-03-01T00:03:38;-1.10;99.90
13344;DHT22;6741;48.964;9.406;2023-03-01T00:06:06;-1.10;99.90
13344;DHT22;6741;48.964;9.406;2023-03-01T00:08:34;-1.20;99.90
13344;DHT22;6741;48.964;9.406;2023-03-01T00:11:06;-1.30;99.90
13344;DHT22;6741;48.964;9.406;2023-03-01T00:13:35;-1.30;99.90
13344;DHT22;6741;48.964;9.406;2023-03-01T00:16:03;-1.40;99.90
13344;DHT22;6741;48.964;9.406;2023-03-01T00:18:32;-1.50;99.90
13344;DHT22;6741;48.964;9.406;2023-03-01T00:20:59;-1.50;99.90
13344;DHT22;6741;48.964;9.406;2023-03-01T00:23:27;-1.60;99.90
13344;DHT22;6741;48.964;9.406;2023-03-01T00:25:55;-1.60;99.90
13344;DHT22;6741;48.964;9.406;2023-03-01T00:28:24;-1.50;99.90
13344;DHT22;6741;48.964;9.406;2023-03-01T00:30:52;-1.50;99.90
13344;DHT22;6741;48.964;9.406;2023-03-01T00:33:19;-1.60;99.90
13344;DHT22;6741;48.964;9.406;2023-03-01T00:35:47;-1.60;99.90
13344;DHT22;6741;48.964;9.406;2023-03-01T00:38:14;-1.50;99.90
13344;DHT22;6741;48.964;9.406;2023-03-01T00:40:42;-1.50;99.90
13344;DHT22;6741;48.964;9.406;2023-03-01T00:43:10;-1.50;99.90
13344;DHT22;6741;48.964;9.406;2023-03-01T00:45:39;-1.50;99.90
13344;DHT22;6741;48.964;9.406;2023-03-01T00:48:06;-1.50;99.90
13344;DHT22;6741;48.964;9.406;2023-03-01T00:50:34;-1.50;99.90
13344;DHT22;6741;48.964;9.406;2023-03-01T00:53:01;-1.50;99.90
13344;DHT22;6741;48.964;9.406;2023-03-01T00:55:31;-1.50;99.90
13344;DHT22;6741;48.964;9.406;2023-03-01T00:57:59;-1.60;99.90
13344;DHT22;6741;48.964;9.406;2023-03-01T01:00:28;-1.50;99.90
13344;DHT22;6741;48.964;9.406;2023-03-01T01:02:59;-1.40;99.90
13344;DHT22;6741;48.964;9.406;2023-03-01T01:05:34;-1.40;99.90
13344;DHT22;6741;48.964;9.406;2023-03-01T01:08:02;-1.40;99.90
13344;DHT22;6741;48.964;9.406;2023-03-01T01:10:30;-1.40;99.90
13344;DHT22;6741;48.964;9.406;2023-03-01T01:12:58;-1.40;99.90
13344;DHT22;6741;48.964;9.406;2023-03-01T01:15:26;-1.30;99.90
13344;DHT22;6741;48.964;9.406;2023-03-01T01:17:53;-1.10;99.90
13344;DHT22;6741;48.964;9.406;2023-03-01T01:20:23;-1.20;99.90
13344;DHT22;6741;48.964;9.406;2023-03-01T01:22:51;-1.20;99.90
13344;DHT22;6741;48.964;9.406;2023-03-01T01:25:23;-1.20;99.90
13344;DHT22;6741;48.964;9.406;2023-03-01T01:27:52;-1.10;99.90
13344;DHT22;6741;48.964;9.406;2023-03-01T01:30:20;-1.10;99.90
13344;DHT22;6741;48.964;9.406;2023-03-01T01:32:47;-1.10;99.90
13344;DHT22;6741;48.964;9.406;2023-03-01T01:35:14;-1.10;99.90
13344;DHT22;6741;48.964;9.406;2023-03-01T01:37:44;-1.10;99.90
13344;DHT22;6741;48.964;9.406;2023-03-01T01:40:12;-1.10;99.90
13344;DHT22;6741;48.964;9.406;2023-03-01T01:42:41;-1.10;99.90
13344;DHT22;6741;48.964;9.406;2023-03-01T01:45:35;-1.10;99.90
13344;DHT22;6741;48.964;9.406;2023-03-01T01:48:06;-1.10;99.90
13344;DHT22;6741;48.964;9.406;2023-03-01T01:50:35;-1.10;99.90
13344;DHT22;6741;48.964;9.406;2023-03-01T01:53:10;-1.00;99.90
13344;DHT22;6741;48.964;9.406;2023-03-01T01:55:43;-0.80;99.90
13344;DHT22;6741;48.964;9.406;2023-03-01T01:58:15;-0.90;99.90
13344;DHT22;6741;48.964;9.406;2023-03-01T02:00:45;-0.90;99.90
13344;DHT22;6741;48.964;9.406;2023-03-01T02:03:17;-0.90;99.90
13344;DHT22;6741;48.964;9.406;2023-03-01T02:05:56;-0.90;99.90
13344;DHT22;6741;48.964;9.406;2023-03-01T02:08:28;-0.90;99.90
13344;DHT22;6741;48.964;9.406;2023-03-01T02:10:58;-0.80;99.90
13344;DHT22;6741;48.964;9.406;2023-03-01T02:13:27;-0.80;99.90
13344;DHT22;6741;48.964;9.406;2023-03-01T02:16:10;-0.80;99.90
13344;DHT22;6741;48.964;9.406;2023-03-01T02:18:40;-0.40;99.90
13344;DHT22;6741;48.964;9.406;2023-03-01T02:21:30;-0.60;99.90
13344;DHT22;6741;48.964;9.406;2023-03-01T02:24:06;-0.70;99.90
13344;DHT22;6741;48.964;9.406;2023-03-01T02:26:42;-0.70;99.90
13344;DHT22;6741;48.964;9.406;2023-03-01T02:29:13;-0.60;99.90
13344;DHT22;6741;48.964;9.406;2023-03-01T02:31:42;-0.60;99.90
13344;DHT22;6741;48.964;9.406;2023-03-01T02:34:21;-0.60;99.90
13344;DHT22;6741;48.964;9.406;2023-03-01T02:37:04;-0.60;99.90
13344;DHT22;6741;48.964;9.406;2023-03-01T02:39:36;-0.70;99.90
13344;DHT22;6741;48.964;9.406;2023-03-01T02:42:09;-0.70;99.90
13344;DHT22;6741;48.964;9.406;2023-03-01T02:44:40;-0.70;99.90
13344;DHT22;6741;48.964;9.406;2023-03-01T02:47:07;-0.70;99.90
13344;DHT22;6741;48.964;9.406;2023-03-01T02:49:36;-0.80;99.90
13344;DHT22;6741;48.964;9.406;2023-03-01T02:52:26;-0.70;99.90
13344;DHT22;6741;48.964;9.406;2023-03-01T02:55:00;-0.50;99.90
13344;DHT22;6741;48.964;9.406;2023-03-01T02:57:32;-0.70;99.90
13344;DHT22;6741;48.964;9.406;2023-03-01T03:00:04;-0.70;99.90
13344;DHT22;6741;48.964;9.406;2023-03-01T03:02:35;-0.70;99.90
13344;DHT22;6741;48.964;9.406;2023-03-01T03:05:08;-0.60;99.90
13344;DHT22;6741;48.964;9.406;2023-03-01T03:07:37;-0.70;99.90
13344;DHT22;6741;48.964;9.406;2023-03-01T03:10:07;-0.60;99.90
13344;DHT22;6741;48.964;9.406;2023-03-01T03:12:37;-0.60;99.90
13344;DHT22;6741;48.964;9.406;2023-03-01T03:15:08;-0.70;99.90
13344;DHT22;6741;48.964;9.406;2023-03-01T03:17:39;-0.80;99.90
13344;DHT22;6741;48.964;9.406;2023-03-01T03:20:11;-0.70;99.90
13344;DHT22;6741;48.964;9.406;2023-03-01T03:22:45;-0.80;99.90
13344;DHT22;6741;48.964;9.406;2023-03-01T03:25:19;-0.80;99.90
13344;DHT22;6741;48.964;9.406;2023-03-01T03:27:48;-0.70;99.90
13344;DHT22;6741;48.964;9.406;2023-03-01T03:30:25;-0.60;99.90
13344;DHT22;6741;48.964;9.406;2023-03-01T03:32:54;-0.80;99.90
13344;DHT22;6741;48.964;9.406;2023-03-01T03:35:24;-0.80;99.90
13344;DHT22;6741;48.964;9.406;2023-03-01T03:37:56;-0.90;99.90
13344;DHT22;6741;48.964;9.406;2023-03-01T03:40:42;-0.90;99.90
13344;DHT22;6741;48.964;9.406;2023-03-01T03:43:11;-0.90;99.90
13344;DHT22;6741;48.964;9.406;2023-03-01T03:45:41;-1.00;99.90
13344;DHT22;6741;48.964;9.406;2023-03-01T03:48:13;-1.00;99.90
13344;DHT22;6741;48.964;9.406;2023-03-01T03:50:42;-1.00;99.90
13344;DHT22;6741;48.964;9.406;2023-03-01T03:53:33;-1.00;99.90
13344;DHT22;6741;48.964;9.406;2023-03-01T03:56:00;-1.00;99.90
13344;DHT22;6741;48.964;9.406;2023-03-01T03:58:30;-1.00;99.90
13344;DHT22;6741;48.964;9.406;2023-03-01T04:01:01;-1.10;99.90
13344;DHT22;6741;48.964;9.406;2023-03-01T04:03:32;-1.10;99.90
13344;DHT22;6741;48.964;9.406;2023-03-01T04:06:01;-0.90;99.90
13344;DHT22;6741;48.964;9.406;2023-03-01T04:08:29;-0.90;99.90
13344;DHT22;6741;48.964;9.406;2023-03-01T04:10:59;-0.90;99.90
13344;DHT22;6741;48.964;9.406;2023-03-01T04:13:47;-1.00;99.90
13344;DHT22;6741;48.964;9.406;2023-03-01T04:16:16;-1.00;99.90
13344;DHT22;6741;48.964;9.406;2023-03-01T04:18:44;-1.00;99.90
13344;DHT22;6741;48.964;9.406;2023-03-01T04:21:12;-0.90;99.90
13344;DHT22;6741;48.964;9.406;2023-03-01T04:23:41;-0.90;99.90
13344;DHT22;6741;48.964;9.406;2023-03-01T04:26:08;-0.90;99.90
13344;DHT22;6741;48.964;9.406;2023-03-01T04:28:38;-0.90;99.90
13344;DHT22;6741;48.964;9.406;2023-03-01T04:31:10;-0.90;99.90
13344;DHT22;6741;48.964;9.406;2023-03-01T04:33:46;-0.90;99.90
13344;DHT22;6741;48.964;9.406;2023-03-01T04:36:15;-1.00;99.90
13344;DHT22;6741;48.964;9.406;2023-03-01T04:38:44;-0.90;99.90
13344;DHT22;6741;48.964;9.406;2023-03-01T04:41:15;-1.00;99.90
13344;DHT22;6741;48.964;9.406;2023-03-01T04:43:43;-0.90;99.90
13344;DHT22;6741;48.964;9.406;2023-03-01T04:46:13;-0.90;99.90
13344;DHT22;6741;48.964;9.406;2023-03-01T04:48:44;-1.00;99.90
13344;DHT22;6741;48.964;9.406;2023-03-01T04:51:12;-1.00;99.90
13344;DHT22;6741;48.964;9.406;2023-03-01T04:53:40;-1.00;99.90
13344;DHT22;6741;48.964;9.406;2023-03-01T04:56:08;-0.90;99.90
13344;DHT22;6741;48.964;9.406;2023-03-01T04:58:36;-1.00;99.90
13344;DHT22;6741;48.964;9.406;2023-03-01T05:01:09;-1.00;99.90
13344;DHT22;6741;48.964;9.406;2023-03-01T05:03:41;-1.00;99.90
13344;DHT22;6741;48.964;9.406;2023-03-01T05:06:11;-1.00;99.90
13344;DHT22;6741;48.964;9.406;2023-03-01T05:08:38;-1.00;99.90
13344;DHT22;6741;48.964;9.406;2023-03-01T05:11:07;-1.00;99.90
13344;DHT22;6741;48.964;9.406;2023-03-01T05:13:35;-1.10;99.90
13344;DHT22;6741;48.964;9.406;2023-03-01T05:16:04;-1.10;99.90
13344;DHT22;6741;48.964;9.406;2023-03-01T05:18:33;-1.10;99.90
13344;DHT22;6741;48.964;9.406;2023-03-01T05:21:04;-1.10;99.90
13344;DHT22;6741;48.964;9.406;2023-03-01T05:23:34;-1.20;99.90
13344;DHT22;6741;48.964;9.406;2023-03-01T05:26:04;-1.20;99.90
13344;DHT22;6741;48.964;9.406;2023-03-01T05:28:33;-1.30;99.90
13344;DHT22;6741;48.964;9.406;2023-03-01T05:31:01;-1.30;99.90
13344;DHT22;6741;48.964;9.406;2023-03-01T05:33:29;-1.30;99.90
13344;DHT22;6741;48.964;9.406;2023-03-01T05:36:00;-1.40;99.90
13344;DHT22;6741;48.964;9.406;2023-03-01T05:38:28;-1.40;99.90
13344;DHT22;6741;48.964;9.406;2023-03-01T05:40:57;-1.30;99.90
13344;DHT22;6741;48.964;9.406;2023-03-01T05:43:24;-1.30;99.90
13344;DHT22;6741;48.964;9.406;2023-03-01T05:45:52;-1.30;99.90
13344;DHT22;6741;48.964;9.406;2023-03-01T05:48:19;-1.20;99.90
13344;DHT22;6741;48.964;9.406;2023-03-01T05:50:47;-1.20;99.90
13344;DHT22;6741;48.964;9.406;2023-03-01T05:53:16;-1.30;99.90
13344;DHT22;6741;48.964;9.406;2023-03-01T05:55:45;-1.20;99.90
13344;DHT22;6741;48.964;9.406;2023-03-01T05:58:18;-1.20;99.90
13344;DHT22;6741;48.964;9.406;2023-03-01T06:00:47;-1.20;99.90
13344;DHT22;6741;48.964;9.406;2023-03-01T06:03:16;-1.10;99.90
13344;DHT22;6741;48.964;9.406;2023-03-01T06:05:44;-1.20;99.90
13344;DHT22;6741;48.964;9.406;2023-03-01T06:08:12;-1.20;99.90
13344;DHT22;6741;48.964;9.406;2023-03-01T06:10:40;-1.20;99.90
13344;DHT22;6741;48.964;9.406;2023-03-01T06:13:08;-1.20;99.90
13344;DHT22;6741;48.964;9.406;2023-03-01T06:15:37;-1.30;99.90
13344;DHT22;6741;48.964;9.406;2023-03-01T06:18:04;-1.30;99.90
13344;DHT22;6741;48.964;9.406;2023-03-01T06:20:32;-1.30;99.90
13344;DHT22;6741;48.964;9.406;2023-03-01T06:23:00;-1.20;99.90
13344;DHT22;6741;48.964;9.406;2023-03-01T06:25:27;-1.30;99.90
13344;DHT22;6741;48.964;9.406;2023-03-01T06:27:56;-1.40;99.90
13344;DHT22;6741;48.964;9.406;2023-03-01T06:30:24;-1.50;99.90
13344;DHT22;6741;48.964;9.406;2023-03-01T06:32:54;-1.60;99.90
13344;DHT22;6741;48.964;9.406;2023-03-01T06:35:26;-1.60;99.90
13344;DHT22;6741;48.964;9.406;2023-03-01T06:37:56;-1.60;99.90
13344;DHT22;6741;48.964;9.406;2023-03-01T06:40:27;-1.60;99.90
13344;DHT22;6741;48.964;9.406;2023-03-01T06:42:58;-1.60;99.90
13344;DHT22;6741;48.964;9.406;2023-03-01T06:45:26;-1.60;99.90
13344;DHT22;6741;48.964;9.406;2023-03-01T06:48:03;-1.60;99.90
13344;DHT22;6741;48.964;9.406;2023-03-01T06:50:31;-1.60;99.90
13344;DHT22;6741;48.964;9.406;2023-03-01T06:52:59;-1.60;99.90
13344;DHT22;6741;48.964;9.406;2023-03-01T06:55:26;-1.60;99.90
13344;DHT22;6741;48.964;9.406;2023-03-01T06:57:57;-1.60;99.90
13344;DHT22;6741;48.964;9.406;2023-03-01T07:00:26;-1.60;99.90
13344;DHT22;6741;48.964;9.406;2023-03-01T07:02:57;-1.60;99.90
13344;DHT22;6741;48.964;9.406;2023-03-01T07:05:27;-1.50;99.90
13344;DHT22;6741;48.964;9.406;2023-03-01T07:07:54;-1.50;99.90
13344;DHT22;6741;48.964;9.406;2023-03-01T07:10:22;-1.30;99.90
13344;DHT22;6741;48.964;9.406;2023-03-01T07:12:50;-1.40;99.90
13344;DHT22;6741;48.964;9.406;2023-03-01T07:15:17;-1.40;99.90
13344;DHT22;6741;48.964;9.406;2023-03-01T07:17:45;-1.40;99.90
13344;DHT22;6741;48.964;9.406;2023-03-01T07:20:14;-1.40;99.90
13344;DHT22;6741;48.964;9.406;2023-03-01T07:22:44;-1.40;99.90
13344;DHT22;6741;48.964;9.406;2023-03-01T07:25:11;-1.30;99.90
13344;DHT22;6741;48.964;9.406;2023-03-01T07:27:39;-1.20;99.90
13344;DHT22;6741;48.964;9.406;2023-03-01T07:30:07;-1.20;99.90
13344;DHT22;6741;48.964;9.406;2023-03-01T07:32:35;-1.20;99.90
13344;DHT22;6741;48.964;9.406;2023-03-01T07:35:03;-1.20;99.90
13344;DHT22;6741;48.964;9.406;2023-03-01T07:37:30;-1.10;99.90
13344;DHT22;6741;48.964;9.406;2023-03-01T07:39:59;-1.00;99.90
13344;DHT22;6741;48.964;9.406;2023-03-01T07:42:27;-1.00;99.90
13344;DHT22;6741;48.964;9.406;2023-03-01T07:44:54;-1.00;99.90
13344;DHT22;6741;48.964;9.406;2023-03-01T07:47:22;-0.90;99.90
13344;DHT22;6741;48.964;9.406;2023-03-01T07:49:49;-0.80;99.90
13344;DHT22;6741;48.964;9.406;2023-03-01T07:52:18;-0.80;99.90
13344;DHT22;6741;48.964;9.406;2023-03-01T07:54:45;-0.70;99.90
13344;DHT22;6741;48.964;9.406;2023-03-01T07:57:14;-0.70;99.90
13344;DHT22;6741;48.964;9.406;2023-03-01T07:59:42;-0.70;99.90
13344;DHT22;6741;48.964;9.406;2023-03-01T08:02:09;-0.70;99.90
13344;DHT22;6741;48.964;9.406;2023-03-01T08:04:37;-0.70;99.90
13344;DHT22;6741;48.964;9.406;2023-03-01T08:07:05;-0.40;99.90
13344;DHT22;6741;48.964;9.406;2023-03-01T08:09:35;-0.40;99.90
13344;DHT22;6741;48.964;9.406;2023-03-01T08:12:03;-0.40;99.90
13344;DHT22;6741;48.964;9.406;2023-03-01T08:14:33;-0.30;99.90
13344;DHT22;6741;48.964;9.406;2023-03-01T08:17:00;-0.30;99.90
13344;DHT22;6741;48.964;9.406;2023-03-01T08:19:29;-0.30;99.90
13344;DHT22;6741;48.964;9.406;2023-03-01T08:21:56;-0.20;99.90
13344;DHT22;6741;48.964;9.406;2023-03-01T08:24:25;-0.10;99.90
13344;DHT22;6741;48.964;9.406;2023-03-01T08:26:53;0.00;99.90
13344;DHT22;6741;48.964;9.406;2023-03-01T08:29:23;0.00;99.90
13344;DHT22;6741;48.964;9.406;2023-03-01T08:31:53;0.10;99.90
13344;DHT22;6741;48.964;9.406;2023-03-01T08:34:20;0.20;99.90
13344;DHT22;6741;48.964;9.406;2023-03-01T08:36:48;0.20;99.90
13344;DHT22;6741;48.964;9.406;2023-03-01T08:39:17;0.20;99.90
13344;DHT22;6741;48.964;9.406;2023-03-01T08:41:45;0.50;99.90
13344;DHT22;6741;48.964;9.406;2023-03-01T08:44:14;0.60;99.90
13344;DHT22;6741;48.964;9.406;2023-03-01T08:46:43;0.60;99.90
13344;DHT22;6741;48.964;9.406;2023-03-01T08:49:14;0.60;99.90
13344;DHT22;6741;48.964;9.406;2023-03-01T08:51:43;0.70;99.90
13344;DHT22;6741;48.964;9.406;2023-03-01T08:54:12;0.80;99.90
13344;DHT22;6741;48.964;9.406;2023-03-01T08:56:41;0.90;99.90
13344;DHT22;6741;48.964;9.406;2023-03-01T08:59:09;1.10;99.90
13344;DHT22;6741;48.964;9.406;2023-03-01T09:01:37;1.10;99.90
13344;DHT22;6741;48.964;9.406;2023-03-01T09:04:06;1.20;99.90
13344;DHT22;6741;48.964;9.406;2023-03-01T09:06:35;1.40;99.90
13344;DHT22;6741;48.964;9.406;2023-03-01T09:09:04;1.40;99.90
13344;DHT22;6741;48.964;9.406;2023-03-01T09:11:32;1.50;99.90
13344;DHT22;6741;48.964;9.406;2023-03-01T09:14:00;1.60;99.90
13344;DHT22;6741;48.964;9.406;2023-03-01T09:16:28;1.70;99.90
13344;DHT22;6741;48.964;9.406;2023-03-01T09:19:02;1.90;99.90
13344;DHT22;6741;48.964;9.406;2023-03-01T09:21:30;1.80;99.90
13344;DHT22;6741;48.964;9.406;2023-03-01T09:23:59;1.90;99.90
13344;DHT22;6741;48.964;9.406;2023-03-01T09:26:28;1.90;99.90
13344;DHT22;6741;48.964;9.406;2023-03-01T09:28:55;2.10;99.90
13344;DHT22;6741;48.964;9.406;2023-03-01T09:31:24;2.10;99.90
13344;DHT22;6741;48.964;9.406;2023-03-01T09:33:53;2.10;99.90
13344;DHT22;6741;48.964;9.406;2023-03-01T09:36:22;2.20;99.90
13344;DHT22;6741;48.964;9.406;2023-03-01T09:38:54;2.40;99.90
13344;DHT22;6741;48.964;9.406;2023-03-01T09:41:42;2.50;99.90
13344;DHT22;6741;48.964;9.406;2023-03-01T09:44:16;2.70;99.90
13344;DHT22;6741;48.964;9.406;2023-03-01T09:46:47;2.80;99.90
13344;DHT22;6741;48.964;9.406;2023-03-01T09:49:20;3.10;99.90
13344;DHT22;6741;48.964;9.406;2023-03-01T09:51:55;3.20;99.90
13344;DHT22;6741;48.964;9.406;2023-03-01T09:54:26;3.50;99.90
13344;DHT22;6741;48.964;9.406;2023-03-01T09:57:07;3.60;99.90
13344;DHT22;6741;48.964;9.406;2023-03-01T09:59:46;3.70;99.90
13344;DHT22;6741;48.964;9.406;2023-03-01T10:02:24;3.90;99.90
13344;DHT22;6741;48.964;9.406;2023-03-01T10:04:55;4.20;99.90
13344;DHT22;6741;48.964;9.406;2023-03-01T10:07:32;4.30;99.90
13344;DHT22;6741;48.964;9.406;2023-03-01T10:10:05;4.50;99.90
13344;DHT22;6741;48.964;9.406;2023-03-01T10:12:37;4.70;99.90
13344;DHT22;6741;48.964;9.406;2023-03-01T10:15:10;5.00;99.90
13344;DHT22;6741;48.964;9.406;2023-03-01T10:17:43;5.20;99.90
13344;DHT22;6741;48.964;9.406;2023-03-01T10:20:19;5.50;99.90
13344;DHT22;6741;48.964;9.406;2023-03-01T10:22:46;5.80;99.90
13344;DHT22;6741;48.964;9.406;2023-03-01T10:25:36;6.20;99.90
13344;DHT22;6741;48.964;9.406;2023-03-01T10:28:10;6.10;99.90
13344;DHT22;6741;48.964;9.406;2023-03-01T10:30:42;5.90;99.90
13344;DHT22;6741;48.964;9.406;2023-03-01T10:33:16;6.40;99.90
13344;DHT22;6741;48.964;9.406;2023-03-01T10:35:45;6.20;99.90
13344;DHT22;6741;48.964;9.406;2023-03-01T10:38:14;6.60;99.90
13344;DHT22;6741;48.964;9.406;2023-03-01T10:40:52;7.20;99.90
13344;DHT22;6741;48.964;9.406;2023-03-01T10:43:22;7.80;99.90
13344;DHT22;6741;48.964;9.406;2023-03-01T10:45:50;8.20;99.90
13344;DHT22;6741;48.964;9.406;2023-03-01T10:48:20;8.50;99.90
13344;DHT22;6741;48.964;9.406;2023-03-01T10:50:57;8.20;99.90
13344;DHT22;6741;48.964;9.406;2023-03-01T10:53:34;8.30;99.90
13344;DHT22;6741;48.964;9.406;2023-03-01T10:56:06;8.30;99.90
13344;DHT22;6741;48.964;9.406;2023-03-01T10:58:37;8.90;99.90
13344;DHT22;6741;48.964;9.406;2023-03-01T11:01:06;8.80;99.90
13344;DHT22;6741;48.964;9.406;2023-03-01T11:04:10;8.80;99.90
13344;DHT22;6741;48.964;9.406;2023-03-01T11:06:39;8.80;99.90
13344;DHT22;6741;48.964;9.406;2023-03-01T11:09:14;9.10;99.90
13344;DHT22;6741;48.964;9.406;2023-03-01T11:11:42;9.70;99.90
13344;DHT22;6741;48.964;9.406;2023-03-01T11:14:16;10.30;99.90
13344;DHT22;6741;48.964;9.406;2023-03-01T11:16:45;11.00;99.90
13344;DHT22;6741;48.964;9.406;2023-03-01T11:19:17;10.80;99.90
13344;DHT22;6741;48.964;9.406;2023-03-01T11:21:59;10.50;99.90
13344;DHT22;6741;48.964;9.406;2023-03-01T11:24:33;10.90;99.90
13344;DHT22;6741;48.964;9.406;2023-03-01T11:27:03;11.70;99.90
13344;DHT22;6741;48.964;9.406;2023-03-01T11:29:36;11.80;99.90
13344;DHT22;6741;48.964;9.406;2023-03-01T11:32:07;12.60;99.90
13344;DHT22;6741;48.964;9.406;2023-03-01T11:34:45;12.90;99.90
13344;DHT22;6741;48.964;9.406;2023-03-01T11:37:22;13.20;99.90
13344;DHT22;6741;48.964;9.406;2023-03-01T11:39:57;13.60;99.90
13344;DHT22;6741;48.964;9.406;2023-03-01T11:42:30;13.80;99.90
13344;DHT22;6741;48.964;9.406;2023-03-01T11:45:10;14.00;99.90
13344;DHT22;6741;48.964;9.406;2023-03-01T11:48:01;14.40;99.90
13344;DHT22;6741;48.964;9.406;2023-03-01T11:50:32;14.20;99.90
13344;DHT22;6741;48.964;9.406;2023-03-01T11:53:28;14.50;99.90
13344;DHT22;6741;48.964;9.406;2023-03-01T11:56:05;14.60;99.90
13344;DHT22;6741;48.964;9.406;2023-03-01T11:58:54;15.30;99.90
13344;DHT22;6741;48.964;9.406;2023-03-01T12:01:46;15.30;99.90
13344;DHT22;6741;48.964;9.406;2023-03-01T12:04:52;15.40;99.90
13344;DHT22;6741;48.964;9.406;2023-03-01T12:07:24;15.30;99.90
13344;DHT22;6741;48.964;9.406;2023-03-01T12:10:16;15.20;99.90
13344;DHT22;6741;48.964;9.406;2023-03-01T12:12:58;15.20;99.90
13344;DHT22;6741;48.964;9.406;2023-03-01T12:18:54;15.40;99.40
13344;DHT22;6741;48.964;9.406;2023-03-01T12:21:35;15.10;99.50
13344;DHT22;6741;48.964;9.406;2023-03-01T12:27:16;16.20;99.20
13344;DHT22;6741;48.964;9.406;2023-03-01T12:29:50;16.90;98.20
13344;DHT22;6741;48.964;9.406;2023-03-01T12:32:43;16.90;97.70
13344;DHT22;6741;48.964;9.406;2023-03-01T12:35:34;16.70;98.10
13344;DHT22;6741;48.964;9.406;2023-03-01T12:38:12;16.30;97.80
13344;DHT22;6741;48.964;9.406;2023-03-01T12:43:56;15.70;97.00
13344;DHT22;6741;48.964;9.406;2023-03-01T12:46:38;16.20;98.30
13344;DHT22;6741;48.964;9.406;2023-03-01T12:49:09;15.90;97.60
13344;DHT22;6741;48.964;9.406;2023-03-01T12:51:40;16.60;96.10
13344;DHT22;6741;48.964;9.406;2023-03-01T12:54:15;16.00;96.40
13344;DHT22;6741;48.964;9.406;2023-03-01T12:56:44;16.20;96.50
13344;DHT22;6741;48.964;9.406;2023-03-01T12:59:22;15.80;96.90
13344;DHT22;6741;48.964;9.406;2023-03-01T13:01:57;16.10;97.10
13344;DHT22;6741;48.964;9.406;2023-03-01T13:04:43;16.20;96.60
13344;DHT22;6741;48.964;9.406;2023-03-01T13:07:23;16.30;97.00
13344;DHT22;6741;48.964;9.406;2023-03-01T13:10:00;15.90;97.00
13344;DHT22;6741;48.964;9.406;2023-03-01T13:12:53;15.40;96.00
13344;DHT22;6741;48.964;9.406;2023-03-01T13:15:32;15.70;96.60
13344;DHT22;6741;48.964;9.406;2023-03-01T13:18:01;15.90;96.60
13344;DHT22;6741;48.964;9.406;2023-03-01T13:20:33;15.80;96.10
13344;DHT22;6741;48.964;9.406;2023-03-01T13:23:06;16.20;96.50
13344;DHT22;6741;48.964;9.406;2023-03-01T13:25:34;16.60;95.60
13344;DHT22;6741;48.964;9.406;2023-03-01T13:28:36;17.30;96.60
13344;DHT22;6741;48.964;9.406;2023-03-01T13:31:07;16.50;95.40
13344;DHT22;6741;48.964;9.406;2023-03-01T13:33:44;16.00;95.80
13344;DHT22;6741;48.964;9.406;2023-03-01T13:39:32;16.50;96.00
13344;DHT22;6741;48.964;9.406;2023-03-01T13:42:31;16.40;95.50
13344;DHT22;6741;48.964;9.406;2023-03-01T13:44:58;15.90;95.30
13344;DHT22;6741;48.964;9.406;2023-03-01T13:47:27;15.80;95.10
13344;DHT22;6741;48.964;9.406;2023-03-01T13:49:56;15.70;95.60
13344;DHT22;6741;48.964;9.406;2023-03-01T13:52:39;15.70;95.20
13344;DHT22;6741;48.964;9.406;2023-03-01T13:55:18;16.30;96.20
13344;DHT22;6741;48.964;9.406;2023-03-01T13:57:48;16.80;94.90
13344;DHT22;6741;48.964;9.406;2023-03-01T14:00:33;16.90;95.10
13344;DHT22;6741;48.964;9.406;2023-03-01T14:03:03;17.20;95.40
13344;DHT22;6741;48.964;9.406;2023-03-01T14:05:30;16.80;94.70
13344;DHT22;6741;48.964;9.406;2023-03-01T14:07:57;16.50;95.00
13344;DHT22;6741;48.964;9.406;2023-03-01T14:10:32;16.20;94.70
13344;DHT22;6741;48.964;9.406;2023-03-01T14:13:14;15.40;95.10
13344;DHT22;6741;48.964;9.406;2023-03-01T14:15:51;16.00;96.10
13344;DHT22;6741;48.964;9.406;2023-03-01T14:18:24;16.40;95.30
13344;DHT22;6741;48.964;9.406;2023-03-01T14:20:52;16.10;95.70
13344;DHT22;6741;48.964;9.406;2023-03-01T14:23:21;15.90;96.20
13344;DHT22;6741;48.964;9.406;2023-03-01T14:25:54;15.70;95.30
13344;DHT22;6741;48.964;9.406;2023-03-01T14:28:24;15.30;94.90
13344;DHT22;6741;48.964;9.406;2023-03-01T14:30:53;15.20;95.20
13344;DHT22;6741;48.964;9.406;2023-03-01T14:33:23;14.50;94.70
13344;DHT22;6741;48.964;9.406;2023-03-01T14:35:59;14.50;96.10
13344;DHT22;6741;48.964;9.406;2023-03-01T14:38:32;15.20;95.90
13344;DHT22;6741;48.964;9.406;2023-03-01T14:41:05;15.90;95.20
13344;DHT22;6741;48.964;9.406;2023-03-01T14:43:33;15.90;95.20
13344;DHT22;6741;48.964;9.406;2023-03-01T14:46:00;15.10;95.60
13344;DHT22;6741;48.964;9.406;2023-03-01T14:48:28;14.90;95.70
13344;DHT22;6741;48.964;9.406;2023-03-01T14:50:56;14.10;95.10
13344;DHT22;6741;48.964;9.406;2023-03-01T14:53:27;13.00;95.70
13344;DHT22;6741;48.964;9.406;2023-03-01T14:55:55;12.80;96.40
13344;DHT22;6741;48.964;9.406;2023-03-01T14:58:26;12.10;96.70
13344;DHT22;6741;48.964;9.406;2023-03-01T15:00:55;12.10;96.60
13344;DHT22;6741;48.964;9.406;2023-03-01T15:03:30;12.50;96.50
13344;DHT22;6741;48.964;9.406;2023-03-01T15:05:58;12.00;96.70
13344;DHT22;6741;48.964;9.406;2023-03-01T15:08:27;12.30;97.10
13344;DHT22;6741;48.964;9.406;2023-03-01T15:11:01;12.50;97.10
13344;DHT22;6741;48.964;9.406;2023-03-01T15:13:31;12.70;96.60
13344;DHT22;6741;48.964;9.406;2023-03-01T15:16:17;12.50;96.60
13344;DHT22;6741;48.964;9.406;2023-03-01T15:18:46;11.60;97.20
13344;DHT22;6741;48.964;9.406;2023-03-01T15:21:18;11.00;97.70
13344;DHT22;6741;48.964;9.406;2023-03-01T15:23:49;10.50;99.00
13344;DHT22;6741;48.964;9.406;2023-03-01T15:26:29;9.40;99.70
13344;DHT22;6741;48.964;9.406;2023-03-01T15:28:59;8.60;99.90
13344;DHT22;6741;48.964;9.406;2023-03-01T15:31:27;8.30;99.90
13344;DHT22;6741;48.964;9.406;2023-03-01T15:34:09;8.00;99.90
13344;DHT22;6741;48.964;9.406;2023-03-01T15:36:41;7.70;99.90
13344;DHT22;6741;48.964;9.406;2023-03-01T15:39:33;7.40;99.90
13344;DHT22;6741;48.964;9.406;2023-03-01T15:42:04;7.40;99.90
13344;DHT22;6741;48.964;9.406;2023-03-01T15:44:35;7.20;99.90
13344;DHT22;6741;48.964;9.406;2023-03-01T15:47:08;7.20;99.90
13344;DHT22;6741;48.964;9.406;2023-03-01T15:49:48;7.20;99.90
13344;DHT22;6741;48.964;9.406;2023-03-01T15:52:22;7.10;99.90
13344;DHT22;6741;48.964;9.406;2023-03-01T15:54:55;7.10;99.90
13344;DHT22;6741;48.964;9.406;2023-03-01T15:57:22;7.00;99.90
13344;DHT22;6741;48.964;9.406;2023-03-01T15:59:51;7.00;99.90
13344;DHT22;6741;48.964;9.406;2023-03-01T16:02:18;7.00;99.90
13344;DHT22;6741;48.964;9.406;2023-03-01T16:04:46;6.90;99.90
13344;DHT22;6741;48.964;9.406;2023-03-01T16:07:14;6.90;99.90
13344;DHT22;6741;48.964;9.406;2023-03-01T16:09:41;6.80;99.90
13344;DHT22;6741;48.964;9.406;2023-03-01T16:12:14;6.80;99.90
13344;DHT22;6741;48.964;9.406;2023-03-01T16:14:41;6.70;99.90
13344;DHT22;6741;48.964;9.406;2023-03-01T16:17:10;6.70;99.90
13344;DHT22;6741;48.964;9.406;2023-03-01T16:19:37;6.60;99.90
13344;DHT22;6741;48.964;9.406;2023-03-01T16:22:04;6.60;99.90
13344;DHT22;6741;48.964;9.406;2023-03-01T16:24:31;6.60;99.90
13344;DHT22;6741;48.964;9.406;2023-03-01T16:26:58;6.60;99.90
13344;DHT22;6741;48.964;9.406;2023-03-01T16:29:25;6.60;99.90
13344;DHT22;6741;48.964;9.406;2023-03-01T16:31:53;6.50;99.90